createdAt,value
2018-06-01T00:00:56.470Z,0.00
2018-06-01T00:01:56.468Z,0.00
2018-06-01T00:02:56.465Z,0.00
2018-06-01T00:03:56.457Z,0.00
2018-06-01T00:04:56.453Z,0.00
2018-06-01T00:05:56.451Z,0.00
2018-06-01T00:06:56.445Z,0.00
2018-06-01T00:07:56.438Z,0.00
2018-06-01T00:08:56.448Z,0.00
2018-06-01T00:09:56.437Z,0.00
2018-06-01T00:10:56.433Z,0.00
2018-06-01T00:11:56.428Z,0.00
2018-06-01T00:12:56.428Z,0.00
2018-06-01T00:13:56.422Z,0.00
2018-06-01T00:14:56.415Z,0.00
2018-06-01T00:15:56.414Z,0.00
2018-06-01T00:16:56.431Z,0.00
2018-06-01T00:17:56.413Z,0.00
2018-06-01T00:18:56.408Z,0.00
2018-06-01T00:19:56.412Z,0.00
2018-06-01T00:20:56.396Z,0.00
2018-06-01T00:21:56.397Z,0.00
2018-06-01T00:22:56.395Z,0.00
2018-06-01T00:23:56.384Z,0.00
2018-06-01T00:24:56.383Z,0.00
2018-06-01T00:25:56.386Z,0.00
2018-06-01T00:26:56.380Z,0.00
2018-06-01T00:27:56.370Z,0.00
2018-06-01T00:28:56.370Z,0.00
2018-06-01T00:29:56.369Z,0.00
2018-06-01T00:30:56.372Z,0.00
2018-06-01T00:31:56.365Z,0.00
2018-06-01T00:32:56.364Z,0.00
2018-06-01T00:33:56.356Z,0.00
2018-06-01T00:34:56.348Z,0.00
2018-06-01T00:35:56.350Z,0.00
2018-06-01T00:36:56.349Z,0.00
2018-06-01T00:37:56.340Z,0.00
2018-06-01T00:38:56.335Z,0.00
2018-06-01T00:39:56.336Z,0.00
2018-06-01T00:40:56.332Z,0.00
2018-06-01T00:41:56.325Z,0.00
2018-06-01T00:42:56.330Z,0.00
2018-06-01T00:43:56.325Z,0.00
2018-06-01T00:44:56.323Z,0.00
2018-06-01T00:45:56.317Z,0.00
2018-06-01T00:46:56.315Z,0.00
2018-06-01T00:47:56.324Z,0.00
2018-06-01T00:48:56.306Z,0.00
2018-06-01T00:49:56.304Z,0.00
2018-06-01T00:50:56.301Z,0.00
2018-06-01T00:51:56.292Z,0.00
2018-06-01T00:52:56.297Z,0.00
2018-06-01T00:53:56.284Z,0.00
2018-06-01T00:54:56.289Z,0.00
2018-06-01T00:55:56.293Z,0.00
2018-06-01T00:56:56.274Z,0.00
2018-06-01T00:57:56.270Z,0.00
2018-06-01T00:58:56.268Z,0.00
2018-06-01T00:59:56.260Z,0.00
2018-06-01T01:00:56.319Z,0.00
2018-06-01T01:01:56.335Z,0.00
2018-06-01T01:02:56.260Z,0.00
2018-06-01T01:03:56.253Z,0.00
2018-06-01T01:04:56.246Z,0.00
2018-06-01T01:05:56.281Z,0.00
2018-06-01T01:06:56.242Z,0.00
2018-06-01T01:07:56.239Z,0.00
2018-06-01T01:08:56.235Z,0.00
2018-06-01T01:09:56.226Z,0.00
2018-06-01T01:10:56.225Z,0.00
2018-06-01T01:11:56.225Z,0.00
2018-06-01T01:12:56.218Z,0.00
2018-06-01T01:13:56.214Z,0.00
2018-06-01T01:14:56.208Z,0.00
2018-06-01T01:15:56.206Z,0.00
2018-06-01T01:16:56.208Z,0.00
2018-06-01T01:17:56.199Z,0.00
2018-06-01T01:18:56.195Z,0.00
2018-06-01T01:19:56.192Z,0.00
2018-06-01T01:20:56.188Z,0.00
2018-06-01T01:21:56.185Z,0.00
2018-06-01T01:22:56.184Z,0.00
2018-06-01T01:23:56.179Z,0.00
2018-06-01T01:24:56.175Z,0.00
2018-06-01T01:25:56.167Z,0.00
2018-06-01T01:26:56.177Z,0.00
2018-06-01T01:27:56.165Z,0.00
2018-06-01T01:28:56.219Z,0.00
2018-06-01T01:29:56.154Z,0.00
2018-06-01T02:04:08.459Z,0.00
2018-06-01T02:05:08.436Z,0.00
2018-06-01T02:07:01.305Z,0.00
2018-06-01T02:08:01.294Z,0.00
2018-06-01T02:09:54.237Z,0.00
2018-06-01T02:10:54.204Z,0.00
2018-06-01T02:12:47.115Z,0.00
2018-06-01T02:13:47.111Z,0.00
2018-06-01T02:15:40.112Z,0.00
2018-06-01T02:16:40.085Z,0.00
2018-06-01T02:18:33.116Z,0.00
2018-06-01T02:19:33.096Z,0.00
2018-06-01T02:20:33.074Z,0.00
2018-06-01T02:21:33.080Z,0.00
2018-06-01T02:22:33.077Z,0.00
2018-06-01T02:23:33.074Z,0.00
2018-06-01T02:24:33.067Z,0.00
2018-06-01T02:25:33.064Z,0.00
2018-06-01T02:26:33.060Z,0.00
2018-06-01T02:27:33.063Z,0.00
2018-06-01T02:28:33.054Z,0.00
2018-06-01T02:29:33.046Z,0.00
2018-06-01T02:30:33.046Z,0.00
2018-06-01T02:31:33.043Z,0.00
2018-06-01T02:32:33.041Z,0.00
2018-06-01T02:33:33.035Z,0.00
2018-06-01T02:34:33.035Z,0.00
2018-06-01T02:35:33.030Z,0.00
2018-06-01T02:36:33.024Z,0.00
2018-06-01T02:37:33.030Z,0.00
2018-06-01T02:38:33.022Z,0.00
2018-06-01T02:39:33.018Z,0.00
2018-06-01T02:40:33.009Z,0.00
2018-06-01T02:41:33.005Z,0.00
2018-06-01T02:42:33.007Z,0.00
2018-06-01T02:43:33.012Z,0.00
2018-06-01T02:44:32.995Z,0.00
2018-06-01T02:45:32.999Z,0.00
2018-06-01T02:46:32.991Z,0.00
2018-06-01T02:47:32.987Z,0.00
2018-06-01T02:48:32.984Z,0.00
2018-06-01T02:49:32.979Z,0.00
2018-06-01T02:50:32.980Z,0.00
2018-06-01T02:51:32.973Z,4.00
2018-06-01T02:52:32.973Z,4.00
2018-06-01T02:53:32.966Z,4.00
2018-06-01T02:54:32.963Z,0.00
2018-06-01T02:55:32.959Z,4.00
2018-06-01T02:56:32.960Z,4.00
2018-06-01T02:57:32.953Z,4.00
2018-06-01T02:58:32.953Z,4.00
2018-06-01T02:59:32.950Z,8.00
2018-06-01T03:00:32.948Z,8.00
2018-06-01T03:01:32.941Z,8.00
2018-06-01T03:02:32.938Z,8.00
2018-06-01T03:03:32.935Z,12.00
2018-06-01T03:04:32.927Z,12.00
2018-06-01T03:05:32.924Z,16.00
2018-06-01T03:06:32.923Z,16.00
2018-06-01T03:07:32.921Z,24.00
2018-06-01T03:08:32.920Z,28.00
2018-06-01T03:09:32.915Z,28.00
2018-06-01T03:10:32.910Z,36.00
2018-06-01T03:11:32.907Z,44.00
2018-06-01T03:12:32.905Z,52.00
2018-06-01T03:13:32.897Z,56.00
2018-06-01T03:14:32.903Z,68.00
2018-06-01T03:15:32.898Z,76.00
2018-06-01T03:16:32.901Z,88.00
2018-06-01T03:17:32.887Z,100.00
2018-06-01T03:18:32.884Z,116.00
2018-06-01T03:19:32.877Z,128.00
2018-06-01T03:20:32.869Z,140.00
2018-06-01T03:21:32.874Z,160.00
2018-06-01T03:22:32.874Z,176.00
2018-06-01T03:23:32.867Z,196.00
2018-06-01T03:24:32.870Z,212.00
2018-06-01T03:25:32.855Z,232.00
2018-06-01T03:26:32.850Z,252.00
2018-06-01T03:27:32.853Z,272.00
2018-06-01T03:28:32.841Z,296.00
2018-06-01T03:29:32.844Z,320.00
2018-06-01T03:30:32.837Z,348.00
2018-06-01T03:31:32.836Z,372.00
2018-06-01T03:32:32.831Z,396.00
2018-06-01T03:33:32.826Z,424.00
2018-06-01T03:34:32.826Z,456.00
2018-06-01T03:35:32.825Z,488.00
2018-06-01T03:36:32.818Z,524.00
2018-06-01T03:37:32.813Z,564.00
2018-06-01T03:38:32.807Z,604.00
2018-06-01T03:39:32.809Z,648.00
2018-06-01T03:40:32.802Z,696.00
2018-06-01T03:41:32.799Z,756.00
2018-06-01T03:42:32.794Z,808.00
2018-06-01T03:43:32.788Z,876.00
2018-06-01T03:44:32.782Z,936.00
2018-06-01T03:45:32.775Z,988.00
2018-06-01T03:46:32.775Z,1044.00
2018-06-01T03:47:32.773Z,1080.00
2018-06-01T03:48:32.770Z,1116.00
2018-06-01T03:49:32.769Z,1152.00
2018-06-01T03:50:32.760Z,1176.00
2018-06-01T03:51:32.755Z,1220.00
2018-06-01T03:52:32.752Z,1280.00
2018-06-01T03:53:32.751Z,1316.00
2018-06-01T03:54:32.741Z,1348.00
2018-06-01T03:55:32.741Z,1368.00
2018-06-01T03:56:32.739Z,1376.00
2018-06-01T03:57:32.730Z,1392.00
2018-06-01T03:58:32.727Z,1428.00
2018-06-01T03:59:32.730Z,1464.00
2018-06-01T04:00:32.719Z,1512.00
2018-06-01T04:01:32.724Z,1544.00
2018-06-01T04:02:32.714Z,1560.00
2018-06-01T04:03:32.727Z,1544.00
2018-06-01T04:04:32.710Z,1488.00
2018-06-01T04:05:32.702Z,1516.00
2018-06-01T04:06:32.701Z,1556.00
2018-06-01T04:07:32.701Z,1624.00
2018-06-01T04:08:32.688Z,1680.00
2018-06-01T04:09:32.689Z,1624.00
2018-06-01T04:10:32.685Z,1640.00
2018-06-01T04:11:32.679Z,1660.00
2018-06-01T04:12:32.676Z,1664.00
2018-06-01T04:13:32.669Z,1692.00
2018-06-01T04:14:32.667Z,1732.00
2018-06-01T04:15:32.665Z,1764.00
2018-06-01T04:16:32.662Z,1796.00
2018-06-01T04:17:32.660Z,1832.00
2018-06-01T04:18:32.654Z,1876.00
2018-06-01T04:19:32.649Z,1920.00
2018-06-01T04:20:32.648Z,1976.00
2018-06-01T04:21:32.644Z,2020.00
2018-06-01T04:22:32.645Z,2040.00
2018-06-01T04:23:32.634Z,2064.00
2018-06-01T04:24:32.632Z,2072.00
2018-06-01T04:25:32.627Z,2080.00
2018-06-01T04:26:32.619Z,2088.00
2018-06-01T04:27:32.615Z,2092.00
2018-06-01T04:28:32.613Z,2108.00
2018-06-01T04:29:32.610Z,2116.00
2018-06-01T04:30:32.607Z,2116.00
2018-06-01T04:31:32.623Z,2124.00
2018-06-01T04:32:32.598Z,2128.00
2018-06-01T04:33:32.594Z,2136.00
2018-06-01T04:34:32.588Z,2148.00
2018-06-01T04:35:32.588Z,2168.00
2018-06-01T04:36:32.584Z,2200.00
2018-06-01T04:37:32.577Z,2220.00
2018-06-01T04:38:32.574Z,2252.00
2018-06-01T04:39:32.573Z,2292.00
2018-06-01T04:40:32.613Z,2340.00
2018-06-01T04:41:32.561Z,2400.00
2018-06-01T04:42:32.558Z,2472.00
2018-06-01T04:43:32.555Z,2564.00
2018-06-01T04:44:32.553Z,2664.00
2018-06-01T04:45:32.549Z,2752.00
2018-06-01T04:46:32.545Z,2860.00
2018-06-01T04:47:32.540Z,2948.00
2018-06-01T04:48:32.539Z,3032.00
2018-06-01T04:49:32.540Z,3116.00
2018-06-01T04:50:32.528Z,3184.00
2018-06-01T04:51:32.526Z,3276.00
2018-06-01T04:52:32.522Z,3376.00
2018-06-01T04:53:32.523Z,3536.00
2018-06-01T04:54:32.515Z,3552.00
2018-06-01T04:55:32.514Z,3620.00
2018-06-01T04:56:32.509Z,3692.00
2018-06-01T04:57:32.503Z,3772.00
2018-06-01T04:58:32.498Z,3852.00
2018-06-01T04:59:32.496Z,3912.00
2018-06-01T05:00:32.481Z,4000.00
2018-06-01T05:01:32.490Z,4004.00
2018-06-01T05:02:32.481Z,4072.00
2018-06-01T05:03:32.485Z,4116.00
2018-06-01T05:04:32.477Z,4180.00
2018-06-01T05:05:32.480Z,4240.00
2018-06-01T05:06:32.475Z,4812.00
2018-06-01T05:07:32.468Z,5028.00
2018-06-01T05:08:32.463Z,4764.00
2018-06-01T05:09:32.457Z,5100.00
2018-06-01T05:10:32.457Z,5748.00
2018-06-01T05:11:32.453Z,6180.00
2018-06-01T05:12:32.449Z,6308.00
2018-06-01T05:13:32.463Z,6416.00
2018-06-01T05:14:32.460Z,6500.00
2018-06-01T05:15:32.439Z,6560.00
2018-06-01T05:16:32.441Z,6648.00
2018-06-01T05:17:32.437Z,6724.00
2018-06-01T05:18:32.431Z,6796.00
2018-06-01T05:19:32.426Z,6844.00
2018-06-01T05:20:32.422Z,6880.00
2018-06-01T05:21:32.418Z,6948.00
2018-06-01T05:22:32.415Z,6988.00
2018-06-01T05:23:32.417Z,7044.00
2018-06-01T05:24:32.984Z,7088.00
2018-06-01T05:25:32.405Z,7160.00
2018-06-01T05:26:32.404Z,7208.00
2018-06-01T05:27:32.410Z,7260.00
2018-06-01T05:28:32.396Z,7304.00
2018-06-01T05:29:32.400Z,7332.00
2018-06-01T05:30:32.391Z,7376.00
2018-06-01T05:31:32.393Z,7396.00
2018-06-01T05:32:32.388Z,7400.00
2018-06-01T05:33:32.381Z,7456.00
2018-06-01T05:34:32.380Z,7492.00
2018-06-01T05:35:32.446Z,7560.00
2018-06-01T05:36:32.374Z,7612.00
2018-06-01T05:37:32.376Z,7644.00
2018-06-01T05:38:32.376Z,7676.00
2018-06-01T05:39:32.378Z,7676.00
2018-06-01T05:40:32.366Z,7756.00
2018-06-01T05:41:32.364Z,7804.00
2018-06-01T05:42:32.366Z,7820.00
2018-06-01T05:43:32.358Z,7848.00
2018-06-01T05:44:32.362Z,7892.00
2018-06-01T05:45:32.363Z,7920.00
2018-06-01T05:46:32.349Z,7968.00
2018-06-01T05:47:32.356Z,7976.00
2018-06-01T05:48:32.353Z,8008.00
2018-06-01T05:49:32.347Z,8028.00
2018-06-01T05:50:32.333Z,8076.00
2018-06-01T05:51:32.330Z,8120.00
2018-06-01T05:52:32.349Z,8152.00
2018-06-01T05:53:32.336Z,8184.00
2018-06-01T05:54:32.337Z,8204.00
2018-06-01T05:55:32.331Z,8252.00
2018-06-01T05:56:32.332Z,8268.00
2018-06-01T05:57:32.324Z,8320.00
2018-06-01T05:58:32.327Z,8332.00
2018-06-01T05:59:32.322Z,8336.00
2018-06-01T06:00:32.318Z,8384.00
2018-06-01T06:01:32.327Z,8408.00
2018-06-01T06:02:32.318Z,8476.00
2018-06-01T06:03:32.321Z,8492.00
2018-06-01T06:04:32.357Z,8532.00
2018-06-01T06:05:32.311Z,8560.00
2018-06-01T06:06:32.305Z,8584.00
2018-06-01T06:07:32.323Z,8652.00
2018-06-01T06:08:32.315Z,8724.00
2018-06-01T06:09:32.308Z,8764.00
2018-06-01T06:10:32.305Z,8732.00
2018-06-01T06:11:32.301Z,8724.00
2018-06-01T06:12:32.299Z,8764.00
2018-06-01T06:13:32.319Z,8816.00
2018-06-01T06:14:32.295Z,8852.00
2018-06-01T06:15:32.296Z,8896.00
2018-06-01T06:16:32.294Z,8932.00
2018-06-01T06:17:32.293Z,8952.00
2018-06-01T06:18:32.288Z,9032.00
2018-06-01T06:19:32.289Z,9048.00
2018-06-01T06:20:32.284Z,9104.00
2018-06-01T06:21:32.290Z,9148.00
2018-06-01T06:22:32.297Z,9208.00
2018-06-01T06:23:32.283Z,9284.00
2018-06-01T06:24:32.286Z,9348.00
2018-06-01T06:25:32.278Z,9392.00
2018-06-01T06:26:32.279Z,9432.00
2018-06-01T06:27:32.280Z,9468.00
2018-06-01T06:28:32.276Z,9492.00
2018-06-01T06:29:32.274Z,9552.00
2018-06-01T06:30:32.276Z,9580.00
2018-06-01T06:31:32.283Z,9616.00
2018-06-01T06:32:32.270Z,9692.00
2018-06-01T06:33:32.271Z,9756.00
2018-06-01T06:34:32.278Z,9800.00
2018-06-01T06:35:32.275Z,9856.00
2018-06-01T06:36:32.273Z,9880.00
2018-06-01T06:37:32.291Z,9912.00
2018-06-01T06:38:32.275Z,9956.00
2018-06-01T06:39:32.268Z,9988.00
2018-06-01T06:40:32.268Z,10004.00
2018-06-01T06:41:32.275Z,10016.00
2018-06-01T06:42:32.261Z,10064.00
2018-06-01T06:43:32.268Z,10112.00
2018-06-01T06:44:32.264Z,10148.00
2018-06-01T06:45:32.266Z,10176.00
2018-06-01T06:46:32.267Z,10200.00
2018-06-01T06:47:32.268Z,10224.00
2018-06-01T06:48:32.263Z,10280.00
2018-06-01T06:49:32.266Z,10356.00
2018-06-01T06:50:32.269Z,10408.00
2018-06-01T06:51:32.264Z,10432.00
2018-06-01T06:52:32.262Z,10464.00
2018-06-01T06:53:32.270Z,10496.00
2018-06-01T06:54:32.265Z,10536.00
2018-06-01T06:55:32.265Z,10592.00
2018-06-01T06:56:32.263Z,10664.00
2018-06-01T06:57:32.252Z,10828.00
2018-06-01T06:58:32.266Z,11184.00
2018-06-01T06:59:32.268Z,11836.00
2018-06-01T07:00:32.270Z,13464.00
2018-06-01T07:01:32.262Z,30208.00
2018-06-01T07:02:32.268Z,48128.00
2018-06-01T07:03:32.269Z,50752.00
2018-06-01T07:04:32.271Z,54816.00
2018-06-01T07:05:32.271Z,59456.00
2018-06-01T07:06:32.276Z,59552.00
2018-06-01T07:07:32.277Z,60192.00
2018-06-01T07:08:32.280Z,62656.00
2018-06-01T07:09:32.286Z,62688.00
2018-06-01T07:10:32.301Z,62560.00
2018-06-01T07:11:32.294Z,59872.00
2018-06-01T07:12:32.302Z,57440.00
2018-06-01T07:13:32.308Z,61984.00
2018-06-01T07:14:32.320Z,61408.00
2018-06-01T07:15:32.327Z,57824.00
2018-06-01T07:16:32.333Z,62880.00
2018-06-01T07:17:32.341Z,66368.00
2018-06-01T07:18:32.352Z,66400.00
2018-06-01T07:19:32.380Z,65856.00
2018-06-01T07:20:32.369Z,64448.00
2018-06-01T07:21:32.386Z,67168.00
2018-06-01T07:22:32.409Z,72672.00
2018-06-01T07:23:32.410Z,70464.00
2018-06-01T07:24:32.411Z,63616.00
2018-06-01T07:25:32.422Z,69632.00
2018-06-01T07:26:32.435Z,75520.00
2018-06-01T07:27:32.447Z,76512.00
2018-06-01T07:28:32.459Z,76672.00
2018-06-01T07:29:32.470Z,74016.00
2018-06-01T07:30:32.482Z,76896.00
2018-06-01T07:31:32.494Z,79360.00
2018-06-01T07:32:32.511Z,75872.00
2018-06-01T07:33:32.517Z,78400.00
2018-06-01T07:34:32.537Z,83968.00
2018-06-01T07:35:32.550Z,76096.00
2018-06-01T07:36:32.560Z,66560.00
2018-06-01T07:37:32.575Z,73856.00
2018-06-01T07:38:32.695Z,81568.00
2018-06-01T07:39:32.603Z,77984.00
2018-06-01T07:40:32.628Z,73088.00
2018-06-01T07:41:32.633Z,80992.00
2018-06-01T07:42:32.646Z,79968.00
2018-06-01T07:43:32.659Z,75296.00
2018-06-01T07:44:32.685Z,76064.00
2018-06-01T07:45:32.692Z,85536.00
2018-06-01T07:46:32.699Z,85056.00
2018-06-01T07:47:32.720Z,79616.00
2018-06-01T07:48:32.736Z,78880.00
2018-06-01T07:49:32.756Z,86560.00
2018-06-01T07:50:32.763Z,87040.00
2018-06-01T07:51:32.780Z,85536.00
2018-06-01T07:52:32.796Z,87232.00
2018-06-01T07:53:32.805Z,89024.00
2018-06-01T07:54:32.840Z,84576.00
2018-06-01T07:55:32.883Z,82784.00
2018-06-01T07:56:32.857Z,83232.00
2018-06-01T07:57:32.880Z,84416.00
2018-06-01T07:58:32.889Z,74176.00
2018-06-01T07:59:32.904Z,61632.00
2018-06-01T08:00:32.919Z,70016.00
2018-06-01T08:01:32.941Z,80480.00
2018-06-01T08:02:32.944Z,85408.00
2018-06-01T08:03:33.028Z,80288.00
2018-06-01T08:04:32.981Z,75456.00
2018-06-01T08:05:32.997Z,81440.00
2018-06-01T08:06:33.016Z,87904.00
2018-06-01T08:07:33.030Z,81184.00
2018-06-01T08:08:33.043Z,72928.00
2018-06-01T08:09:33.065Z,76352.00
2018-06-01T08:10:33.079Z,83008.00
2018-06-01T08:11:33.093Z,85376.00
2018-06-01T08:12:33.111Z,83136.00
2018-06-01T08:13:33.126Z,83040.00
2018-06-01T08:14:33.144Z,85696.00
2018-06-01T08:15:33.161Z,83840.00
2018-06-01T08:16:33.185Z,78688.00
2018-06-01T08:17:33.196Z,78496.00
2018-06-01T08:18:33.215Z,80928.00
2018-06-01T08:19:33.227Z,82240.00
2018-06-01T08:20:33.245Z,84160.00
2018-06-01T08:21:33.264Z,84352.00
2018-06-01T08:22:33.280Z,80896.00
2018-06-01T08:23:33.299Z,84608.00
2018-06-01T08:24:33.325Z,88704.00
2018-06-01T08:25:33.333Z,82688.00
2018-06-01T08:26:33.349Z,82272.00
2018-06-01T08:27:33.392Z,84160.00
2018-06-01T08:28:33.387Z,83968.00
2018-06-01T08:29:33.405Z,86400.00
2018-06-01T08:30:33.423Z,88736.00
2018-06-01T08:31:33.440Z,91200.00
2018-06-01T08:32:33.508Z,91136.00
2018-06-01T08:33:33.475Z,88256.00
2018-06-01T08:34:33.500Z,91744.00
2018-06-01T08:35:33.510Z,69984.00
2018-06-01T08:36:33.531Z,87296.00
2018-06-01T08:37:33.556Z,86784.00
2018-06-01T08:38:33.702Z,81056.00
2018-06-01T08:39:33.662Z,86208.00
2018-06-01T08:40:33.601Z,90208.00
2018-06-01T08:41:33.628Z,89344.00
2018-06-01T08:42:33.647Z,89984.00
2018-06-01T08:43:33.664Z,95744.00
2018-06-01T08:44:33.683Z,99776.00
2018-06-01T08:45:33.732Z,103392.00
2018-06-01T08:46:33.749Z,112512.00
2018-06-01T08:47:33.743Z,116416.00
2018-06-01T08:48:33.762Z,120320.00
2018-06-01T08:49:33.784Z,127680.00
2018-06-01T08:50:33.800Z,127456.00
2018-06-01T08:51:33.831Z,125376.00
2018-06-01T08:52:33.895Z,132096.00
2018-06-01T08:53:33.856Z,122176.00
2018-06-01T08:54:33.880Z,124320.00
2018-06-01T08:55:33.899Z,116768.00
2018-06-01T08:56:33.918Z,120768.00
2018-06-01T08:57:33.940Z,123392.00
2018-06-01T08:58:33.963Z,115776.00
2018-06-01T08:59:33.991Z,126848.00
2018-06-01T09:00:34.010Z,120736.00
2018-06-01T09:01:34.033Z,117120.00
2018-06-01T09:02:34.063Z,116672.00
2018-06-01T09:03:34.081Z,121408.00
2018-06-01T09:04:34.119Z,120992.00
2018-06-01T09:05:34.110Z,115872.00
2018-06-01T09:06:34.135Z,114208.00
2018-06-01T09:07:34.151Z,119968.00
2018-06-01T09:08:34.180Z,126016.00
2018-06-01T09:09:34.219Z,87200.00
2018-06-01T09:10:34.222Z,85344.00
2018-06-01T09:11:34.264Z,109344.00
2018-06-01T09:12:34.269Z,116032.00
2018-06-01T09:13:34.288Z,119520.00
2018-06-01T09:14:34.301Z,43360.00
2018-06-01T09:15:34.336Z,32064.00
2018-06-01T09:16:34.356Z,96544.00
2018-06-01T09:17:34.461Z,82176.00
2018-06-01T09:18:34.398Z,33792.00
2018-06-01T09:19:34.428Z,25632.00
2018-06-01T09:20:34.442Z,25344.00
2018-06-01T09:21:34.494Z,95616.00
2018-06-01T09:22:34.615Z,79328.00
2018-06-01T09:23:34.502Z,31264.00
2018-06-01T09:24:34.522Z,28640.00
2018-06-01T09:25:34.638Z,28800.00
2018-06-01T09:26:34.592Z,24224.00
2018-06-01T09:27:34.580Z,30976.00
2018-06-01T09:28:34.593Z,65504.00
2018-06-01T09:29:34.610Z,30624.00
2018-06-01T09:30:34.616Z,24576.00
2018-06-01T09:31:34.639Z,39584.00
2018-06-01T09:32:34.656Z,57984.00
2018-06-01T09:33:34.669Z,84288.00
2018-06-01T09:34:34.688Z,42112.00
2018-06-01T09:35:34.702Z,74240.00
2018-06-01T09:36:34.721Z,31712.00
2018-06-01T09:37:34.737Z,28704.00
2018-06-01T09:38:34.744Z,33248.00
2018-06-01T09:39:34.768Z,29280.00
2018-06-01T09:40:34.778Z,65728.00
2018-06-01T09:41:34.796Z,31520.00
2018-06-01T09:42:34.814Z,90976.00
2018-06-01T09:43:34.839Z,83392.00
2018-06-01T09:44:34.835Z,40544.00
2018-06-01T09:45:34.851Z,40544.00
2018-06-01T09:46:34.893Z,48864.00
2018-06-01T09:47:34.877Z,33504.00
2018-06-01T09:48:34.895Z,29120.00
2018-06-01T09:49:34.909Z,28288.00
2018-06-01T09:50:34.923Z,28864.00
2018-06-01T09:51:34.939Z,31552.00
2018-06-01T09:52:34.945Z,35328.00
2018-06-01T09:53:34.962Z,36832.00
2018-06-01T09:54:34.974Z,51840.00
2018-06-01T09:55:34.984Z,36928.00
2018-06-01T09:56:35.005Z,97376.00
2018-06-01T09:57:35.014Z,40064.00
2018-06-01T09:58:35.026Z,57952.00
2018-06-01T09:59:35.037Z,85024.00
2018-06-01T10:00:35.054Z,90464.00
2018-06-01T10:01:35.060Z,90592.00
2018-06-01T10:02:35.100Z,66976.00
2018-06-01T10:03:35.088Z,94272.00
2018-06-01T10:04:35.102Z,97472.00
2018-06-01T10:05:35.124Z,59456.00
2018-06-01T10:06:35.129Z,47872.00
2018-06-01T10:07:35.161Z,46048.00
2018-06-01T10:08:35.159Z,61472.00
2018-06-01T10:09:35.179Z,71296.00
2018-06-01T10:10:35.187Z,66080.00
2018-06-01T10:11:35.197Z,76864.00
2018-06-01T10:12:35.214Z,61472.00
2018-06-01T10:13:35.232Z,61920.00
2018-06-01T10:14:35.240Z,79584.00
2018-06-01T10:15:35.281Z,67008.00
2018-06-01T10:16:35.270Z,53056.00
2018-06-01T10:17:35.282Z,50784.00
2018-06-01T10:18:35.298Z,73760.00
2018-06-01T10:19:35.315Z,80928.00
2018-06-01T10:20:35.371Z,68224.00
2018-06-01T10:21:35.357Z,91296.00
2018-06-01T10:22:35.351Z,55904.00
2018-06-01T10:23:36.012Z,58656.00
2018-06-01T10:24:35.385Z,45760.00
2018-06-01T10:25:35.394Z,54752.00
2018-06-01T10:26:35.454Z,40384.00
2018-06-01T10:27:35.426Z,37312.00
2018-06-01T10:28:35.440Z,36992.00
2018-06-01T10:29:35.457Z,34752.00
2018-06-01T10:30:35.469Z,32000.00
2018-06-01T10:31:35.495Z,30944.00
2018-06-01T10:32:35.495Z,30912.00
2018-06-01T10:33:35.507Z,35168.00
2018-06-01T10:34:35.518Z,42592.00
2018-06-01T10:35:35.532Z,44544.00
2018-06-01T10:36:35.544Z,47200.00
2018-06-01T10:37:35.557Z,97248.00
2018-06-01T10:38:35.578Z,32928.00
2018-06-01T10:39:35.609Z,99072.00
2018-06-01T10:40:35.591Z,92896.00
2018-06-01T10:41:35.601Z,99200.00
2018-06-01T10:42:35.615Z,95872.00
2018-06-01T10:43:35.632Z,97472.00
2018-06-01T10:44:35.644Z,102976.00
2018-06-01T10:45:35.657Z,107552.00
2018-06-01T10:46:35.673Z,105280.00
2018-06-01T10:47:35.688Z,80704.00
2018-06-01T10:48:35.708Z,63072.00
2018-06-01T10:49:35.767Z,75392.00
2018-06-01T10:50:35.738Z,95200.00
2018-06-01T10:51:35.767Z,92256.00
2018-06-01T10:52:35.762Z,99872.00
2018-06-01T10:53:35.785Z,89920.00
2018-06-01T10:54:35.796Z,74784.00
2018-06-01T10:55:35.822Z,64800.00
2018-06-01T10:56:35.832Z,60736.00
2018-06-01T10:57:35.855Z,99808.00
2018-06-01T10:58:35.872Z,73376.00
2018-06-01T10:59:35.901Z,57056.00
2018-06-01T11:00:35.917Z,65728.00
2018-06-01T11:01:35.955Z,103936.00
2018-06-01T11:02:35.943Z,78688.00
2018-06-01T11:03:35.973Z,62144.00
2018-06-01T11:04:35.963Z,57248.00
2018-06-01T11:05:35.993Z,105696.00
2018-06-01T11:06:36.010Z,121984.00
2018-06-01T11:07:36.022Z,107584.00
2018-06-01T11:08:36.041Z,101568.00
2018-06-01T11:09:36.065Z,67360.00
2018-06-01T11:10:36.091Z,106336.00
2018-06-01T11:11:36.108Z,105952.00
2018-06-01T11:12:36.110Z,102528.00
2018-06-01T11:13:36.125Z,102144.00
2018-06-01T11:14:36.152Z,104096.00
2018-06-01T11:15:37.013Z,95360.00
2018-06-01T11:16:36.205Z,88736.00
2018-06-01T11:17:36.212Z,91840.00
2018-06-01T11:18:36.231Z,92704.00
2018-06-01T11:19:36.244Z,91200.00
2018-06-01T11:20:36.285Z,89184.00
2018-06-01T11:21:36.316Z,90880.00
2018-06-01T11:22:36.305Z,88992.00
2018-06-01T11:23:36.327Z,83680.00
2018-06-01T11:24:36.345Z,83424.00
2018-06-01T11:25:36.362Z,44768.00
2018-06-01T11:26:36.377Z,97696.00
2018-06-01T11:27:36.415Z,87232.00
2018-06-01T11:28:36.431Z,86944.00
2018-06-01T11:29:36.442Z,90560.00
2018-06-01T11:30:36.466Z,86304.00
2018-06-01T11:31:36.487Z,82848.00
2018-06-01T11:32:36.506Z,83040.00
2018-06-01T11:33:36.530Z,82112.00
2018-06-01T11:34:36.564Z,79904.00
2018-06-01T11:35:36.571Z,85472.00
2018-06-01T11:36:36.592Z,87328.00
2018-06-01T11:37:36.606Z,85280.00
2018-06-01T11:38:36.627Z,82848.00
2018-06-01T11:39:36.648Z,80352.00
2018-06-01T11:40:36.686Z,80096.00
2018-06-01T11:41:36.687Z,80288.00
2018-06-01T11:42:36.725Z,83008.00
2018-06-01T11:43:36.731Z,84256.00
2018-06-01T11:44:36.745Z,82624.00
2018-06-01T11:45:36.767Z,81280.00
2018-06-01T11:46:36.785Z,81376.00
2018-06-01T11:47:36.802Z,85056.00
2018-06-01T11:48:36.823Z,86688.00
2018-06-01T11:49:36.845Z,84832.00
2018-06-01T11:50:36.874Z,82240.00
2018-06-01T11:51:36.882Z,81472.00
2018-06-01T11:52:36.896Z,80320.00
2018-06-01T11:53:36.917Z,84576.00
2018-06-01T11:54:36.951Z,83488.00
2018-06-01T11:55:36.958Z,82432.00
2018-06-01T11:56:36.974Z,83552.00
2018-06-01T11:57:36.996Z,83232.00
2018-06-01T11:58:37.023Z,77632.00
2018-06-01T11:59:37.048Z,73760.00
2018-06-01T12:00:37.051Z,77920.00
2018-06-01T12:01:37.133Z,79744.00
2018-06-01T12:02:37.096Z,81312.00
2018-06-01T12:03:37.106Z,82080.00
2018-06-01T12:04:37.142Z,81792.00
2018-06-01T12:05:37.161Z,81728.00
2018-06-01T12:06:37.165Z,80768.00
2018-06-01T12:07:37.183Z,82816.00
2018-06-01T12:08:37.202Z,88576.00
2018-06-01T12:09:37.223Z,90816.00
2018-06-01T12:10:37.245Z,90432.00
2018-06-01T12:11:37.264Z,86816.00
2018-06-01T12:12:37.279Z,82080.00
2018-06-01T12:13:37.295Z,81632.00
2018-06-01T12:14:37.326Z,85024.00
2018-06-01T12:15:37.337Z,86016.00
2018-06-01T12:16:37.360Z,88288.00
2018-06-01T12:17:37.390Z,88736.00
2018-06-01T12:18:37.390Z,88864.00
2018-06-01T12:19:37.410Z,89152.00
2018-06-01T12:20:37.427Z,97184.00
2018-06-01T12:21:37.450Z,100352.00
2018-06-01T12:22:37.460Z,97408.00
2018-06-01T12:23:37.497Z,98624.00
2018-06-01T12:24:37.502Z,100544.00
2018-06-01T12:25:37.522Z,100768.00
2018-06-01T12:26:37.536Z,102624.00
2018-06-01T12:27:37.560Z,101280.00
2018-06-01T12:28:37.573Z,101664.00
2018-06-01T12:29:37.593Z,103136.00
2018-06-01T12:30:37.612Z,107744.00
2018-06-01T12:31:37.629Z,112384.00
2018-06-01T12:32:37.649Z,82112.00
2018-06-01T12:33:37.663Z,26912.00
2018-06-01T12:34:37.683Z,11296.00
2018-06-01T12:35:37.710Z,10500.00
2018-06-01T12:36:37.713Z,9692.00
2018-06-01T12:37:37.757Z,9160.00
2018-06-01T12:38:37.762Z,9004.00
2018-06-01T12:39:37.811Z,9048.00
2018-06-01T12:40:37.783Z,9416.00
2018-06-01T12:41:37.792Z,9568.00
2018-06-01T12:42:37.805Z,9968.00
2018-06-01T12:43:37.819Z,10752.00
2018-06-01T12:44:37.834Z,11556.00
2018-06-01T12:45:37.863Z,12208.00
2018-06-01T12:46:37.877Z,11972.00